Harrisburg International Airport Harrisburg US
ICAO: KMDT
IATA: MDT
Category: Medium
Scheduled Services: Yes

Elevation: 310 ft
TransAlt. 18000 ft.

Airport Communications:
APP/DEP:118.25
ATIS:118.8
GND:121.7
ANG OPS:39.51
TWR:124.8

KMDT Zoom In..

If you have problems with the map follow the link
https://www.worldairports.se/pages/airport.php?
ICAO=KMDT

Runways:

(A) RW 13 length 10002 ft width 200 ft
ILS 110.90 / hdg 128

(B) RW 31 length 10002 ft width 200 ft
ILS 110.90 / hdg 308

Location; KMDT
Day. 23 / Time. 18.56 Zulu
* Altimeter: 29.93
* Temperature: 18° c. 64.4°f.
* Wind from: 270° Speed 15 kn with Gusts up to 27 kn.
Dewpoint: 02° c.
Visibility: 10 Statute Miles.
Clouds: Broken 8000 ft.
Clouds: Broken 9500 ft.

KMDT 231856Z 27015G27KT 10SM BKN080 BKN095 18/02 A2993 RMK AO2 PK WND 29027/1851 SLP136 T01780022


Wind From 270°
Speed 15 kn.

 
 
jpsmedia.com for Web Design worldairports.se 2018   terms of use